• Join FlightAware (Why Join?)
  • Login
  • US Flag 
07:21AM EST


 

Airport Tracker/Info


-or-


 

Live Flight TrackerFlight Track Log ✈ N326KB ✈ 13-May-2013 ✈ KBKL - KOSU

Flight Track Log - Related Links

Times and Time Zones

All times are in EDT time to prevent confusion due to time zone crossing. See the N326KB flight status page for this flight to view local times or setup timezone preferences in your user account.

Time Position Orientation Groundspeed Altitude Reporting Facility
EDT Latitude Longitude Course Direction KTS MPH feet Rate Location/Type
06:18PM 41.1597 -81.7497 217° Southwest 140 161 6,400  Level Cleveland Center
06:19PM 41.1344 -81.7850 226° Southwest 150 173 6,400  Level Cleveland Center
06:20PM 41.1047 -81.8231 224° Southwest 150 173 6,400  Level Cleveland Center
06:21PM 41.0772 -81.8556 222° Southwest 154 177 6,400  Level Cleveland Center
06:23PM 41.5159 -81.6850 217° Southwest  Level Estimated
06:23PM 41.0265 -81.9035 225° Southwest  Level FlightAware Approximate
06:24PM 41.4963 -81.7044 217° Southwest  Level Estimated
06:30PM 40.8057 -82.1677 223° Southwest  Level FlightAware Approximate
06:31PM 40.7748 -82.2063 223° Southwest  Level FlightAware Approximate
06:32PM 40.7438 -82.2448 223° Southwest  Level FlightAware Approximate
06:33PM 40.7128 -82.2833 223° Southwest  Level FlightAware Approximate
06:34PM 40.6818 -82.3217 223° Southwest  Level FlightAware Approximate
06:35PM 40.6508 -82.3601 223° Southwest  Level FlightAware Approximate
06:36PM 40.6198 -82.3985 223° Southwest  Level FlightAware Approximate
06:37PM 40.5887 -82.4368 223° Southwest  Level FlightAware Approximate
06:38PM 40.5577 -82.4752 223° Southwest  Level FlightAware Approximate
06:39PM 40.5266 -82.5134 223° Southwest  Level FlightAware Approximate
06:40PM 40.4955 -82.5517 223° Southwest  Level FlightAware Approximate
06:40PM 40.4658 -82.6100 224° Southwest 159 183 6,400  Level Indianapolis Center
06:41PM 40.4648 -82.5903 224° Southwest  Level FlightAware Approximate
06:41PM 40.4342 -82.6475 222° Southwest 155 178 6,400  Level Indianapolis Center
06:42PM 40.4342 -82.6291 224° Southwest  Level FlightAware Approximate
06:42PM 40.4003 -82.6875 222° Southwest 157 181 6,400  Level Indianapolis Center
06:43PM 40.4035 -82.6679 224° Southwest  Level FlightAware Approximate
06:43PM 40.3683 -82.7278 224° Southwest 157 181 6,400  Level Indianapolis Center
06:44PM 40.3729 -82.7067 224° Southwest  Level FlightAware Approximate
06:44PM 40.3344 -82.7650 220° Southwest 155 178 6,400  Level Indianapolis Center
06:45PM 40.3423 -82.7455 224° Southwest  Level FlightAware Approximate
06:45PM 40.3025 -82.8050 224° Southwest 160 184 6,100  Level Indianapolis Center
06:46PM 40.3116 -82.7842 224° Southwest  Level FlightAware Approximate
06:47PM 40.2386 -82.8825 223° Southwest  Level FlightAware Approximate
06:54PM 40.0667 -83.0667 201° Southwest  Level FlightAware Approximate
06:55PM 40.0798 -83.0732 201° Southwest  Level Estimated
06:56PM 40.0798 -83.0732 201° Southwest  Level Estimated
06:57PM 40.0798 -83.0732 201° Southwest  Level Estimated
06:58PM 40.0798 -83.0732 201° Southwest  Level Estimated
06:59PM 40.0798 -83.0732 201° Southwest  Level Estimated
07:00PM 40.0798 -83.0732 201° Southwest  Level Estimated
07:01PM 40.0798 -83.0732 201° Southwest  Level Estimated
07:02PM 40.0798 -83.0732 201° Southwest  Level Estimated
07:03PM 40.0798 -83.0732 201° Southwest  Level Estimated
07:04PM 40.0798 -83.0732 201° Southwest  Level Estimated
07:05PM 40.0798 -83.0732 201° Southwest  Level Estimated
07:06PM 40.0798 -83.0732 201° Southwest  Level Estimated
07:07PM 40.0798 -83.0732 201° Southwest  Level Estimated
07:08PM 40.0798 -83.0732 201° Southwest  Level Estimated
07:09PM 40.0798 -83.0732 201° Southwest  Level Estimated
07:10PM 40.0798 -83.0732 201° Southwest  Level Estimated
07:11PM 40.0798 -83.0732 201° Southwest  Level Estimated
07:12PM 40.0798 -83.0732 201° Southwest  Level Estimated
07:13PM 40.0798 -83.0732 201° Southwest  Level Estimated
07:14PM 40.0798 -83.0732 201° Southwest  Level Estimated
07:15PM 40.0798 -83.0732 201° Southwest  Level Estimated
07:16PM 40.0798 -83.0732 201° Southwest  Level Estimated
07:17PM 40.0798 -83.0732 201° Southwest  Level Estimated
07:18PM 40.0798 -83.0732 201° Southwest  Level Estimated
07:19PM 40.0798 -83.0732 201° Southwest  Level Estimated
07:20PM 40.0798 -83.0732 201° Southwest  Level Estimated